sensor_id;sensor_type;location;lat;lon;timestamp;temperature;humidity
7384;DHT22;3733;47.994;8.820;2023-01-08T00:02:10;1.60;99.90
7384;DHT22;3733;47.994;8.820;2023-01-08T00:04:36;1.60;99.90
7384;DHT22;3733;47.994;8.820;2023-01-08T00:07:01;1.60;99.90
7384;DHT22;3733;47.994;8.820;2023-01-08T00:09:27;1.60;99.90
7384;DHT22;3733;47.994;8.820;2023-01-08T00:11:52;1.60;99.90
7384;DHT22;3733;47.994;8.820;2023-01-08T00:14:18;1.60;99.90
7384;DHT22;3733;47.994;8.820;2023-01-08T00:16:44;1.60;99.90
7384;DHT22;3733;47.994;8.820;2023-01-08T00:19:12;1.60;99.90
7384;DHT22;3733;47.994;8.820;2023-01-08T00:21:38;1.60;99.90
7384;DHT22;3733;47.994;8.820;2023-01-08T00:24:04;1.60;99.90
7384;DHT22;3733;47.994;8.820;2023-01-08T00:26:30;1.50;99.90
7384;DHT22;3733;47.994;8.820;2023-01-08T00:28:56;1.50;99.90
7384;DHT22;3733;47.994;8.820;2023-01-08T00:31:21;1.40;99.90
7384;DHT22;3733;47.994;8.820;2023-01-08T00:33:47;1.40;99.90
7384;DHT22;3733;47.994;8.820;2023-01-08T00:36:14;1.40;99.90
7384;DHT22;3733;47.994;8.820;2023-01-08T00:38:41;1.40;99.90
7384;DHT22;3733;47.994;8.820;2023-01-08T00:41:07;1.30;99.90
7384;DHT22;3733;47.994;8.820;2023-01-08T00:43:33;1.30;99.90
7384;DHT22;3733;47.994;8.820;2023-01-08T00:45:58;1.30;99.90
7384;DHT22;3733;47.994;8.820;2023-01-08T00:48:24;1.30;99.90
7384;DHT22;3733;47.994;8.820;2023-01-08T00:50:51;1.30;99.90
7384;DHT22;3733;47.994;8.820;2023-01-08T00:53:18;1.30;99.90
7384;DHT22;3733;47.994;8.820;2023-01-08T00:55:44;1.30;99.90
7384;DHT22;3733;47.994;8.820;2023-01-08T00:58:10;1.30;99.90
7384;DHT22;3733;47.994;8.820;2023-01-08T01:00:36;1.30;99.90
7384;DHT22;3733;47.994;8.820;2023-01-08T01:03:02;1.20;99.90
7384;DHT22;3733;47.994;8.820;2023-01-08T01:05:27;1.20;99.90
7384;DHT22;3733;47.994;8.820;2023-01-08T01:07:53;1.10;99.90
7384;DHT22;3733;47.994;8.820;2023-01-08T01:10:19;1.10;99.90
7384;DHT22;3733;47.994;8.820;2023-01-08T01:12:44;1.10;99.90
7384;DHT22;3733;47.994;8.820;2023-01-08T01:15:13;1.10;99.90
7384;DHT22;3733;47.994;8.820;2023-01-08T01:17:40;1.10;99.90
7384;DHT22;3733;47.994;8.820;2023-01-08T01:20:08;1.10;99.90
7384;DHT22;3733;47.994;8.820;2023-01-08T01:22:34;1.10;99.90
7384;DHT22;3733;47.994;8.820;2023-01-08T01:25:00;1.00;99.90
7384;DHT22;3733;47.994;8.820;2023-01-08T01:27:26;1.00;99.90
7384;DHT22;3733;47.994;8.820;2023-01-08T01:29:52;1.10;99.90
7384;DHT22;3733;47.994;8.820;2023-01-08T01:32:18;1.10;99.90
7384;DHT22;3733;47.994;8.820;2023-01-08T01:34:44;1.10;99.90
7384;DHT22;3733;47.994;8.820;2023-01-08T01:37:12;1.00;99.90
7384;DHT22;3733;47.994;8.820;2023-01-08T01:39:39;1.00;99.90
7384;DHT22;3733;47.994;8.820;2023-01-08T01:42:05;1.00;99.90
7384;DHT22;3733;47.994;8.820;2023-01-08T01:44:49;1.00;99.90
7384;DHT22;3733;47.994;8.820;2023-01-08T01:49:54;1.00;99.90
7384;DHT22;3733;47.994;8.820;2023-01-08T01:52:24;1.00;99.90
7384;DHT22;3733;47.994;8.820;2023-01-08T01:54:52;1.00;99.90
7384;DHT22;3733;47.994;8.820;2023-01-08T01:57:18;1.00;99.90
7384;DHT22;3733;47.994;8.820;2023-01-08T01:59:45;1.10;99.90
7384;DHT22;3733;47.994;8.820;2023-01-08T02:02:12;1.10;99.90
7384;DHT22;3733;47.994;8.820;2023-01-08T02:04:38;1.10;99.90
7384;DHT22;3733;47.994;8.820;2023-01-08T02:07:18;1.00;99.90
7384;DHT22;3733;47.994;8.820;2023-01-08T02:10:06;1.00;99.90
7384;DHT22;3733;47.994;8.820;2023-01-08T02:12:42;0.90;99.90
7384;DHT22;3733;47.994;8.820;2023-01-08T02:15:26;0.90;99.90
7384;DHT22;3733;47.994;8.820;2023-01-08T02:18:04;0.90;99.90
7384;DHT22;3733;47.994;8.820;2023-01-08T02:20:42;0.80;99.90
7384;DHT22;3733;47.994;8.820;2023-01-08T02:26:00;0.80;99.90
7384;DHT22;3733;47.994;8.820;2023-01-08T02:28:29;0.80;99.90
7384;DHT22;3733;47.994;8.820;2023-01-08T02:30:57;0.80;99.90
7384;DHT22;3733;47.994;8.820;2023-01-08T02:33:23;0.80;99.90
7384;DHT22;3733;47.994;8.820;2023-01-08T02:38:50;0.90;99.90
7384;DHT22;3733;47.994;8.820;2023-01-08T02:41:20;0.90;99.90
7384;DHT22;3733;47.994;8.820;2023-01-08T02:43:50;0.80;99.90
7384;DHT22;3733;47.994;8.820;2023-01-08T02:46:23;0.80;99.90
7384;DHT22;3733;47.994;8.820;2023-01-08T02:48:55;0.80;99.90
7384;DHT22;3733;47.994;8.820;2023-01-08T02:51:39;0.80;99.90
7384;DHT22;3733;47.994;8.820;2023-01-08T02:54:09;0.80;99.90
7384;DHT22;3733;47.994;8.820;2023-01-08T02:56:39;0.80;99.90
7384;DHT22;3733;47.994;8.820;2023-01-08T02:59:06;0.80;99.90
7384;DHT22;3733;47.994;8.820;2023-01-08T03:01:33;0.70;99.90
7384;DHT22;3733;47.994;8.820;2023-01-08T03:04:03;0.70;99.90
7384;DHT22;3733;47.994;8.820;2023-01-08T03:06:31;0.70;99.90
7384;DHT22;3733;47.994;8.820;2023-01-08T03:08:58;0.70;99.90
7384;DHT22;3733;47.994;8.820;2023-01-08T03:11:31;0.70;99.90
7384;DHT22;3733;47.994;8.820;2023-01-08T03:14:14;0.70;99.90
7384;DHT22;3733;47.994;8.820;2023-01-08T03:16:47;0.70;99.90
7384;DHT22;3733;47.994;8.820;2023-01-08T03:19:22;0.70;99.90
7384;DHT22;3733;47.994;8.820;2023-01-08T03:21:50;0.70;99.90
7384;DHT22;3733;47.994;8.820;2023-01-08T03:24:24;0.70;99.90
7384;DHT22;3733;47.994;8.820;2023-01-08T03:26:54;0.70;99.90
7384;DHT22;3733;47.994;8.820;2023-01-08T03:29:21;0.80;99.90
7384;DHT22;3733;47.994;8.820;2023-01-08T03:31:49;0.80;99.90
7384;DHT22;3733;47.994;8.820;2023-01-08T03:34:18;0.80;99.90
7384;DHT22;3733;47.994;8.820;2023-01-08T03:36:48;0.80;99.90
7384;DHT22;3733;47.994;8.820;2023-01-08T03:39:17;0.80;99.90
7384;DHT22;3733;47.994;8.820;2023-01-08T03:41:43;0.70;99.90
7384;DHT22;3733;47.994;8.820;2023-01-08T03:44:10;0.70;99.90
7384;DHT22;3733;47.994;8.820;2023-01-08T03:46:39;0.70;99.90
7384;DHT22;3733;47.994;8.820;2023-01-08T03:49:07;0.70;99.90
7384;DHT22;3733;47.994;8.820;2023-01-08T03:51:45;0.70;99.90
7384;DHT22;3733;47.994;8.820;2023-01-08T03:54:14;0.60;99.90
7384;DHT22;3733;47.994;8.820;2023-01-08T03:56:41;0.60;99.90
7384;DHT22;3733;47.994;8.820;2023-01-08T03:59:06;0.60;99.90
7384;DHT22;3733;47.994;8.820;2023-01-08T04:01:32;0.60;99.90
7384;DHT22;3733;47.994;8.820;2023-01-08T04:03:58;0.60;99.90
7384;DHT22;3733;47.994;8.820;2023-01-08T04:06:23;0.60;99.90
7384;DHT22;3733;47.994;8.820;2023-01-08T04:08:49;0.60;99.90
7384;DHT22;3733;47.994;8.820;2023-01-08T04:11:15;0.70;99.90
7384;DHT22;3733;47.994;8.820;2023-01-08T04:13:40;0.70;99.90
7384;DHT22;3733;47.994;8.820;2023-01-08T04:16:06;0.70;99.90
7384;DHT22;3733;47.994;8.820;2023-01-08T04:18:32;0.80;99.90
7384;DHT22;3733;47.994;8.820;2023-01-08T04:20:58;0.80;99.90
7384;DHT22;3733;47.994;8.820;2023-01-08T04:23:24;0.80;99.90
7384;DHT22;3733;47.994;8.820;2023-01-08T04:25:51;0.80;99.90
7384;DHT22;3733;47.994;8.820;2023-01-08T04:28:16;0.80;99.90
7384;DHT22;3733;47.994;8.820;2023-01-08T04:30:42;0.90;99.90
7384;DHT22;3733;47.994;8.820;2023-01-08T04:33:08;0.90;99.90
7384;DHT22;3733;47.994;8.820;2023-01-08T04:35:33;0.90;99.90
7384;DHT22;3733;47.994;8.820;2023-01-08T04:37:59;0.90;99.90
7384;DHT22;3733;47.994;8.820;2023-01-08T04:40:25;0.90;99.90
7384;DHT22;3733;47.994;8.820;2023-01-08T04:42:50;1.00;99.90
7384;DHT22;3733;47.994;8.820;2023-01-08T04:45:16;1.00;99.90
7384;DHT22;3733;47.994;8.820;2023-01-08T04:47:42;1.00;99.90
7384;DHT22;3733;47.994;8.820;2023-01-08T04:50:07;1.10;99.90
7384;DHT22;3733;47.994;8.820;2023-01-08T04:52:33;1.10;99.90
7384;DHT22;3733;47.994;8.820;2023-01-08T04:54:59;1.10;99.90
7384;DHT22;3733;47.994;8.820;2023-01-08T04:57:25;1.10;99.90
7384;DHT22;3733;47.994;8.820;2023-01-08T04:59:50;1.10;99.90
7384;DHT22;3733;47.994;8.820;2023-01-08T05:02:16;1.10;99.90
7384;DHT22;3733;47.994;8.820;2023-01-08T05:04:41;1.10;99.90
7384;DHT22;3733;47.994;8.820;2023-01-08T05:07:07;1.10;99.90
7384;DHT22;3733;47.994;8.820;2023-01-08T05:09:33;1.10;99.90
7384;DHT22;3733;47.994;8.820;2023-01-08T05:11:58;1.10;99.90
7384;DHT22;3733;47.994;8.820;2023-01-08T05:14:24;1.10;99.90
7384;DHT22;3733;47.994;8.820;2023-01-08T05:16:50;1.00;99.90
7384;DHT22;3733;47.994;8.820;2023-01-08T05:19:15;1.10;99.90
7384;DHT22;3733;47.994;8.820;2023-01-08T05:21:41;1.10;99.90
7384;DHT22;3733;47.994;8.820;2023-01-08T05:24:07;1.00;99.90
7384;DHT22;3733;47.994;8.820;2023-01-08T05:26:34;1.10;99.90
7384;DHT22;3733;47.994;8.820;2023-01-08T05:29:00;1.10;99.90
7384;DHT22;3733;47.994;8.820;2023-01-08T05:31:25;1.10;99.90
7384;DHT22;3733;47.994;8.820;2023-01-08T05:33:51;1.10;99.90
7384;DHT22;3733;47.994;8.820;2023-01-08T05:36:17;1.10;99.90
7384;DHT22;3733;47.994;8.820;2023-01-08T05:38:42;1.20;99.90
7384;DHT22;3733;47.994;8.820;2023-01-08T05:41:09;1.20;99.90
7384;DHT22;3733;47.994;8.820;2023-01-08T05:43:35;1.20;99.90
7384;DHT22;3733;47.994;8.820;2023-01-08T05:46:01;1.20;99.90
7384;DHT22;3733;47.994;8.820;2023-01-08T05:48:28;1.30;99.90
7384;DHT22;3733;47.994;8.820;2023-01-08T05:50:54;1.30;99.90
7384;DHT22;3733;47.994;8.820;2023-01-08T05:53:20;1.40;99.90
7384;DHT22;3733;47.994;8.820;2023-01-08T05:55:46;1.40;99.90
7384;DHT22;3733;47.994;8.820;2023-01-08T05:58:11;1.40;99.90
7384;DHT22;3733;47.994;8.820;2023-01-08T06:00:37;1.50;99.90
7384;DHT22;3733;47.994;8.820;2023-01-08T06:03:04;1.50;99.90
7384;DHT22;3733;47.994;8.820;2023-01-08T06:05:30;1.50;99.90
7384;DHT22;3733;47.994;8.820;2023-01-08T06:07:57;1.50;99.90
7384;DHT22;3733;47.994;8.820;2023-01-08T06:10:22;1.50;99.90
7384;DHT22;3733;47.994;8.820;2023-01-08T06:12:48;1.50;99.90
7384;DHT22;3733;47.994;8.820;2023-01-08T06:15:14;1.60;99.90
7384;DHT22;3733;47.994;8.820;2023-01-08T06:17:40;1.60;99.90
7384;DHT22;3733;47.994;8.820;2023-01-08T06:20:06;1.60;99.90
7384;DHT22;3733;47.994;8.820;2023-01-08T06:22:33;1.60;99.90
7384;DHT22;3733;47.994;8.820;2023-01-08T06:24:58;1.60;99.90
7384;DHT22;3733;47.994;8.820;2023-01-08T06:27:24;1.70;99.90
7384;DHT22;3733;47.994;8.820;2023-01-08T06:29:50;1.70;99.90
7384;DHT22;3733;47.994;8.820;2023-01-08T06:32:15;1.60;99.90
7384;DHT22;3733;47.994;8.820;2023-01-08T06:34:41;1.60;99.90
7384;DHT22;3733;47.994;8.820;2023-01-08T06:37:06;1.60;99.90
7384;DHT22;3733;47.994;8.820;2023-01-08T06:39:32;1.60;99.90
7384;DHT22;3733;47.994;8.820;2023-01-08T06:41:58;1.70;99.90
7384;DHT22;3733;47.994;8.820;2023-01-08T06:44:23;1.70;99.90
7384;DHT22;3733;47.994;8.820;2023-01-08T06:46:49;1.70;99.90
7384;DHT22;3733;47.994;8.820;2023-01-08T06:49:15;1.80;99.90
7384;DHT22;3733;47.994;8.820;2023-01-08T06:51:42;1.70;99.90
7384;DHT22;3733;47.994;8.820;2023-01-08T06:54:08;1.70;99.90
7384;DHT22;3733;47.994;8.820;2023-01-08T06:56:33;1.80;99.90
7384;DHT22;3733;47.994;8.820;2023-01-08T06:58:59;1.80;99.90
7384;DHT22;3733;47.994;8.820;2023-01-08T07:01:25;1.80;99.90
7384;DHT22;3733;47.994;8.820;2023-01-08T07:03:50;1.80;99.90
7384;DHT22;3733;47.994;8.820;2023-01-08T07:06:18;1.80;99.90
7384;DHT22;3733;47.994;8.820;2023-01-08T07:08:45;1.80;99.90
7384;DHT22;3733;47.994;8.820;2023-01-08T07:11:11;1.80;99.90
7384;DHT22;3733;47.994;8.820;2023-01-08T07:13:37;1.80;99.90
7384;DHT22;3733;47.994;8.820;2023-01-08T07:16:11;1.80;99.90
7384;DHT22;3733;47.994;8.820;2023-01-08T07:18:37;1.80;99.90
7384;DHT22;3733;47.994;8.820;2023-01-08T07:21:04;1.80;99.90
7384;DHT22;3733;47.994;8.820;2023-01-08T07:23:30;1.80;99.90
7384;DHT22;3733;47.994;8.820;2023-01-08T07:26:00;1.80;99.90
7384;DHT22;3733;47.994;8.820;2023-01-08T07:28:27;1.90;99.90
7384;DHT22;3733;47.994;8.820;2023-01-08T07:30:52;1.90;99.90
7384;DHT22;3733;47.994;8.820;2023-01-08T07:33:18;1.90;99.90
7384;DHT22;3733;47.994;8.820;2023-01-08T07:35:53;1.90;99.90
7384;DHT22;3733;47.994;8.820;2023-01-08T07:38:19;1.90;99.90
7384;DHT22;3733;47.994;8.820;2023-01-08T07:40:44;1.90;99.90
7384;DHT22;3733;47.994;8.820;2023-01-08T07:43:10;1.90;99.90
7384;DHT22;3733;47.994;8.820;2023-01-08T07:45:37;1.90;99.90
7384;DHT22;3733;47.994;8.820;2023-01-08T07:48:03;2.00;99.90
7384;DHT22;3733;47.994;8.820;2023-01-08T07:50:29;2.00;99.90
7384;DHT22;3733;47.994;8.820;2023-01-08T07:53:01;2.00;99.90
7384;DHT22;3733;47.994;8.820;2023-01-08T07:55:28;2.10;99.90
7384;DHT22;3733;47.994;8.820;2023-01-08T07:57:54;2.10;99.90
7384;DHT22;3733;47.994;8.820;2023-01-08T08:00:20;2.10;99.90
7384;DHT22;3733;47.994;8.820;2023-01-08T08:02:46;2.10;99.90
7384;DHT22;3733;47.994;8.820;2023-01-08T08:05:12;2.10;99.90
7384;DHT22;3733;47.994;8.820;2023-01-08T08:07:38;2.20;99.90
7384;DHT22;3733;47.994;8.820;2023-01-08T08:10:04;2.20;99.90
7384;DHT22;3733;47.994;8.820;2023-01-08T08:12:30;2.20;99.90
7384;DHT22;3733;47.994;8.820;2023-01-08T08:14:56;2.20;99.90
7384;DHT22;3733;47.994;8.820;2023-01-08T08:17:22;2.20;99.90
7384;DHT22;3733;47.994;8.820;2023-01-08T08:19:48;2.20;99.90
7384;DHT22;3733;47.994;8.820;2023-01-08T08:22:13;2.20;99.90
7384;DHT22;3733;47.994;8.820;2023-01-08T08:24:39;2.20;99.90
7384;DHT22;3733;47.994;8.820;2023-01-08T08:27:05;2.20;99.90
7384;DHT22;3733;47.994;8.820;2023-01-08T08:29:30;2.30;99.90
7384;DHT22;3733;47.994;8.820;2023-01-08T08:31:56;2.30;99.90
7384;DHT22;3733;47.994;8.820;2023-01-08T08:34:22;2.30;99.90
7384;DHT22;3733;47.994;8.820;2023-01-08T08:36:48;2.30;99.90
7384;DHT22;3733;47.994;8.820;2023-01-08T08:39:14;2.30;99.90
7384;DHT22;3733;47.994;8.820;2023-01-08T08:41:40;2.40;99.90
7384;DHT22;3733;47.994;8.820;2023-01-08T08:44:07;2.40;99.90
7384;DHT22;3733;47.994;8.820;2023-01-08T08:46:33;2.40;99.90
7384;DHT22;3733;47.994;8.820;2023-01-08T08:48:59;2.40;99.90
7384;DHT22;3733;47.994;8.820;2023-01-08T08:51:25;2.50;99.90
7384;DHT22;3733;47.994;8.820;2023-01-08T08:53:50;2.50;99.90
7384;DHT22;3733;47.994;8.820;2023-01-08T08:56:16;2.60;99.90
7384;DHT22;3733;47.994;8.820;2023-01-08T08:58:42;2.60;99.90
7384;DHT22;3733;47.994;8.820;2023-01-08T09:01:09;2.60;99.90
7384;DHT22;3733;47.994;8.820;2023-01-08T09:03:35;2.60;99.90
7384;DHT22;3733;47.994;8.820;2023-01-08T09:06:01;2.70;99.90
7384;DHT22;3733;47.994;8.820;2023-01-08T09:08:27;2.70;99.90
7384;DHT22;3733;47.994;8.820;2023-01-08T09:10:52;2.70;99.90
7384;DHT22;3733;47.994;8.820;2023-01-08T09:13:18;2.80;99.90
7384;DHT22;3733;47.994;8.820;2023-01-08T09:15:43;2.80;99.90
7384;DHT22;3733;47.994;8.820;2023-01-08T09:18:09;2.80;99.90
7384;DHT22;3733;47.994;8.820;2023-01-08T09:20:35;2.80;99.90
7384;DHT22;3733;47.994;8.820;2023-01-08T09:23:01;2.90;99.90
7384;DHT22;3733;47.994;8.820;2023-01-08T09:25:28;2.90;99.90
7384;DHT22;3733;47.994;8.820;2023-01-08T09:30:25;3.00;99.90
7384;DHT22;3733;47.994;8.820;2023-01-08T09:32:50;3.00;99.90
7384;DHT22;3733;47.994;8.820;2023-01-08T09:35:20;3.00;99.90
7384;DHT22;3733;47.994;8.820;2023-01-08T09:37:49;3.00;99.90
7384;DHT22;3733;47.994;8.820;2023-01-08T09:40:15;3.10;99.90
7384;DHT22;3733;47.994;8.820;2023-01-08T09:42:41;3.10;99.90
7384;DHT22;3733;47.994;8.820;2023-01-08T09:45:15;3.10;99.90
7384;DHT22;3733;47.994;8.820;2023-01-08T09:47:43;3.20;99.90
7384;DHT22;3733;47.994;8.820;2023-01-08T09:50:13;3.20;99.90
7384;DHT22;3733;47.994;8.820;2023-01-08T09:52:39;3.30;99.90
7384;DHT22;3733;47.994;8.820;2023-01-08T09:55:12;3.30;99.90
7384;DHT22;3733;47.994;8.820;2023-01-08T09:57:38;3.40;99.90
7384;DHT22;3733;47.994;8.820;2023-01-08T10:00:20;3.50;99.90
7384;DHT22;3733;47.994;8.820;2023-01-08T10:02:47;3.50;99.90
7384;DHT22;3733;47.994;8.820;2023-01-08T10:05:15;3.60;99.90
7384;DHT22;3733;47.994;8.820;2023-01-08T10:07:41;3.70;99.90
7384;DHT22;3733;47.994;8.820;2023-01-08T10:10:22;3.70;99.90
7384;DHT22;3733;47.994;8.820;2023-01-08T10:12:49;3.80;99.90
7384;DHT22;3733;47.994;8.820;2023-01-08T10:15:18;3.80;99.90
7384;DHT22;3733;47.994;8.820;2023-01-08T10:20:17;3.90;99.90
7384;DHT22;3733;47.994;8.820;2023-01-08T10:22:43;4.00;99.90
7384;DHT22;3733;47.994;8.820;2023-01-08T10:25:19;4.10;99.90
7384;DHT22;3733;47.994;8.820;2023-01-08T10:27:59;4.20;99.90
7384;DHT22;3733;47.994;8.820;2023-01-08T10:30:37;4.30;99.90
7384;DHT22;3733;47.994;8.820;2023-01-08T10:33:10;4.30;99.90
7384;DHT22;3733;47.994;8.820;2023-01-08T10:35:40;4.40;99.90
7384;DHT22;3733;47.994;8.820;2023-01-08T10:38:20;4.50;99.90
7384;DHT22;3733;47.994;8.820;2023-01-08T10:40:48;4.50;99.90
7384;DHT22;3733;47.994;8.820;2023-01-08T10:45:42;4.60;99.90
7384;DHT22;3733;47.994;8.820;2023-01-08T10:48:17;4.70;99.90
7384;DHT22;3733;47.994;8.820;2023-01-08T10:50:43;4.80;99.90
7384;DHT22;3733;47.994;8.820;2023-01-08T10:53:25;4.80;99.90
7384;DHT22;3733;47.994;8.820;2023-01-08T10:56:02;4.90;99.90
7384;DHT22;3733;47.994;8.820;2023-01-08T10:58:38;4.90;99.90
7384;DHT22;3733;47.994;8.820;2023-01-08T11:01:17;5.00;99.90
7384;DHT22;3733;47.994;8.820;2023-01-08T11:03:49;5.00;99.90
7384;DHT22;3733;47.994;8.820;2023-01-08T11:06:21;5.00;99.90
7384;DHT22;3733;47.994;8.820;2023-01-08T11:09:02;5.10;99.90
7384;DHT22;3733;47.994;8.820;2023-01-08T11:11:36;5.10;99.90
7384;DHT22;3733;47.994;8.820;2023-01-08T11:14:33;5.10;99.90
7384;DHT22;3733;47.994;8.820;2023-01-08T11:17:10;5.20;99.90
7384;DHT22;3733;47.994;8.820;2023-01-08T11:19:37;5.20;99.90
7384;DHT22;3733;47.994;8.820;2023-01-08T11:22:24;5.20;99.90
7384;DHT22;3733;47.994;8.820;2023-01-08T11:24:51;5.30;99.90
7384;DHT22;3733;47.994;8.820;2023-01-08T11:27:24;5.30;99.90
7384;DHT22;3733;47.994;8.820;2023-01-08T11:35:25;5.30;99.90
7384;DHT22;3733;47.994;8.820;2023-01-08T11:37:53;5.30;99.90
7384;DHT22;3733;47.994;8.820;2023-01-08T11:43:28;5.40;99.90
7384;DHT22;3733;47.994;8.820;2023-01-08T11:48:30;5.50;99.90
7384;DHT22;3733;47.994;8.820;2023-01-08T11:59:22;5.60;99.90
7384;DHT22;3733;47.994;8.820;2023-01-08T12:02:19;5.60;99.90
7384;DHT22;3733;47.994;8.820;2023-01-08T12:05:31;5.70;99.90
7384;DHT22;3733;47.994;8.820;2023-01-08T12:08:04;5.70;99.90
7384;DHT22;3733;47.994;8.820;2023-01-08T12:13:31;5.70;99.90
7384;DHT22;3733;47.994;8.820;2023-01-08T12:16:24;5.70;99.90
7384;DHT22;3733;47.994;8.820;2023-01-08T12:22:10;5.80;99.90
7384;DHT22;3733;47.994;8.820;2023-01-08T12:33:32;5.90;99.90
7384;DHT22;3733;47.994;8.820;2023-01-08T12:36:02;5.90;99.90
7384;DHT22;3733;47.994;8.820;2023-01-08T12:38:33;5.90;99.90
7384;DHT22;3733;47.994;8.820;2023-01-08T12:41:07;5.90;99.90
7384;DHT22;3733;47.994;8.820;2023-01-08T12:43:55;5.90;99.90
7384;DHT22;3733;47.994;8.820;2023-01-08T12:46:22;6.00;99.90
7384;DHT22;3733;47.994;8.820;2023-01-08T12:48:50;6.00;99.90
7384;DHT22;3733;47.994;8.820;2023-01-08T12:51:25;6.10;99.90
7384;DHT22;3733;47.994;8.820;2023-01-08T12:54:14;6.20;99.90
7384;DHT22;3733;47.994;8.820;2023-01-08T13:04:52;6.50;99.90
7384;DHT22;3733;47.994;8.820;2023-01-08T13:07:29;6.60;99.90
7384;DHT22;3733;47.994;8.820;2023-01-08T13:10:03;6.60;99.90
7384;DHT22;3733;47.994;8.820;2023-01-08T13:12:39;6.60;99.90
7384;DHT22;3733;47.994;8.820;2023-01-08T13:15:06;6.60;99.90
7384;DHT22;3733;47.994;8.820;2023-01-08T13:17:33;6.60;99.90
7384;DHT22;3733;47.994;8.820;2023-01-08T13:20:01;6.60;99.90
7384;DHT22;3733;47.994;8.820;2023-01-08T13:22:35;6.60;99.90
7384;DHT22;3733;47.994;8.820;2023-01-08T13:26:09;6.70;99.90
7384;DHT22;3733;47.994;8.820;2023-01-08T13:31:36;6.70;99.90
7384;DHT22;3733;47.994;8.820;2023-01-08T13:33:55;6.80;99.90
7384;DHT22;3733;47.994;8.820;2023-01-08T13:36:25;6.70;99.90
7384;DHT22;3733;47.994;8.820;2023-01-08T13:39:20;6.80;99.90
7384;DHT22;3733;47.994;8.820;2023-01-08T13:42:02;6.70;99.90
7384;DHT22;3733;47.994;8.820;2023-01-08T13:44:37;6.70;99.90
7384;DHT22;3733;47.994;8.820;2023-01-08T13:49:50;6.80;99.90
7384;DHT22;3733;47.994;8.820;2023-01-08T13:55:03;6.70;99.90
7384;DHT22;3733;47.994;8.820;2023-01-08T13:57:36;6.80;99.90
7384;DHT22;3733;47.994;8.820;2023-01-08T14:00:06;6.80;99.90
7384;DHT22;3733;47.994;8.820;2023-01-08T14:02:40;6.80;99.90
7384;DHT22;3733;47.994;8.820;2023-01-08T14:05:20;6.80;99.90
7384;DHT22;3733;47.994;8.820;2023-01-08T14:07:45;6.80;99.90
7384;DHT22;3733;47.994;8.820;2023-01-08T14:10:13;6.90;99.90
7384;DHT22;3733;47.994;8.820;2023-01-08T14:12:39;6.90;99.90
7384;DHT22;3733;47.994;8.820;2023-01-08T14:15:08;6.90;99.90
7384;DHT22;3733;47.994;8.820;2023-01-08T14:17:36;6.90;99.90
7384;DHT22;3733;47.994;8.820;2023-01-08T14:20:01;6.80;99.90
7384;DHT22;3733;47.994;8.820;2023-01-08T14:22:34;6.80;99.90
7384;DHT22;3733;47.994;8.820;2023-01-08T14:25:02;6.80;99.90
7384;DHT22;3733;47.994;8.820;2023-01-08T14:27:30;6.80;99.90
7384;DHT22;3733;47.994;8.820;2023-01-08T14:29:56;6.80;99.90
7384;DHT22;3733;47.994;8.820;2023-01-08T14:32:25;6.70;99.90
7384;DHT22;3733;47.994;8.820;2023-01-08T14:34:52;6.70;99.90
7384;DHT22;3733;47.994;8.820;2023-01-08T14:37:19;6.70;99.90
7384;DHT22;3733;47.994;8.820;2023-01-08T14:39:46;6.70;99.90
7384;DHT22;3733;47.994;8.820;2023-01-08T14:45:12;6.70;99.90
7384;DHT22;3733;47.994;8.820;2023-01-08T14:47:43;6.70;99.90
7384;DHT22;3733;47.994;8.820;2023-01-08T14:50:26;6.70;99.90
7384;DHT22;3733;47.994;8.820;2023-01-08T14:52:57;6.70;99.90
7384;DHT22;3733;47.994;8.820;2023-01-08T14:55:25;6.70;99.90
7384;DHT22;3733;47.994;8.820;2023-01-08T14:57:54;6.60;99.90
7384;DHT22;3733;47.994;8.820;2023-01-08T15:00:23;6.70;99.90
7384;DHT22;3733;47.994;8.820;2023-01-08T15:02:49;6.60;99.90
7384;DHT22;3733;47.994;8.820;2023-01-08T15:05:16;6.60;99.90
7384;DHT22;3733;47.994;8.820;2023-01-08T15:07:58;6.60;99.90
7384;DHT22;3733;47.994;8.820;2023-01-08T15:10:38;6.70;99.90
7384;DHT22;3733;47.994;8.820;2023-01-08T15:13:05;6.60;99.90
7384;DHT22;3733;47.994;8.820;2023-01-08T15:15:34;6.60;99.90
7384;DHT22;3733;47.994;8.820;2023-01-08T15:18:04;6.60;99.90
7384;DHT22;3733;47.994;8.820;2023-01-08T15:20:31;6.50;99.90
7384;DHT22;3733;47.994;8.820;2023-01-08T15:22:58;6.50;99.90
7384;DHT22;3733;47.994;8.820;2023-01-08T15:25:26;6.50;99.90
7384;DHT22;3733;47.994;8.820;2023-01-08T15:27:59;6.40;99.90
7384;DHT22;3733;47.994;8.820;2023-01-08T15:30:38;6.30;99.90
7384;DHT22;3733;47.994;8.820;2023-01-08T15:33:22;6.30;99.90
7384;DHT22;3733;47.994;8.820;2023-01-08T15:35:49;6.30;99.90
7384;DHT22;3733;47.994;8.820;2023-01-08T15:38:16;6.20;99.90
7384;DHT22;3733;47.994;8.820;2023-01-08T15:40:43;6.20;99.90
7384;DHT22;3733;47.994;8.820;2023-01-08T15:43:14;6.20;99.90
7384;DHT22;3733;47.994;8.820;2023-01-08T15:45:46;6.20;99.90
7384;DHT22;3733;47.994;8.820;2023-01-08T15:48:12;6.30;99.90
7384;DHT22;3733;47.994;8.820;2023-01-08T15:50:39;6.20;99.90
7384;DHT22;3733;47.994;8.820;2023-01-08T15:53:11;6.20;99.90
7384;DHT22;3733;47.994;8.820;2023-01-08T15:55:37;6.20;99.90
7384;DHT22;3733;47.994;8.820;2023-01-08T15:58:03;6.10;99.90
7384;DHT22;3733;47.994;8.820;2023-01-08T16:00:29;6.10;99.90
7384;DHT22;3733;47.994;8.820;2023-01-08T16:02:56;6.10;99.90
7384;DHT22;3733;47.994;8.820;2023-01-08T16:05:24;6.10;99.90
7384;DHT22;3733;47.994;8.820;2023-01-08T16:07:53;6.00;99.90
7384;DHT22;3733;47.994;8.820;2023-01-08T16:10:19;6.00;99.90
7384;DHT22;3733;47.994;8.820;2023-01-08T16:12:45;6.00;99.90
7384;DHT22;3733;47.994;8.820;2023-01-08T16:15:12;6.00;99.90
7384;DHT22;3733;47.994;8.820;2023-01-08T16:17:38;5.90;99.90
7384;DHT22;3733;47.994;8.820;2023-01-08T16:20:05;6.00;99.90
7384;DHT22;3733;47.994;8.820;2023-01-08T16:22:31;5.90;99.90
7384;DHT22;3733;47.994;8.820;2023-01-08T16:24:56;5.90;99.90
7384;DHT22;3733;47.994;8.820;2023-01-08T16:27:22;5.90;99.90
7384;DHT22;3733;47.994;8.820;2023-01-08T16:29:48;5.90;99.90
7384;DHT22;3733;47.994;8.820;2023-01-08T16:32:13;5.90;99.90
7384;DHT22;3733;47.994;8.820;2023-01-08T16:34:39;5.90;99.90
7384;DHT22;3733;47.994;8.820;2023-01-08T16:37:04;5.90;99.90
7384;DHT22;3733;47.994;8.820;2023-01-08T16:39:30;5.90;99.90
7384;DHT22;3733;47.994;8.820;2023-01-08T16:41:59;5.80;99.90
7384;DHT22;3733;47.994;8.820;2023-01-08T16:44:25;5.80;99.90
7384;DHT22;3733;47.994;8.820;2023-01-08T16:46:55;5.80;99.90
7384;DHT22;3733;47.994;8.820;2023-01-08T16:49:23;5.80;99.90
7384;DHT22;3733;47.994;8.820;2023-01-08T16:51:48;5.80;99.90
7384;DHT22;3733;47.994;8.820;2023-01-08T16:54:15;5.80;99.90
7384;DHT22;3733;47.994;8.820;2023-01-08T16:56:41;5.80;99.90
7384;DHT22;3733;47.994;8.820;2023-01-08T16:59:08;5.80;99.90
7384;DHT22;3733;47.994;8.820;2023-01-08T17:01:34;5.80;99.90
7384;DHT22;3733;47.994;8.820;2023-01-08T17:04:00;5.80;99.90
7384;DHT22;3733;47.994;8.820;2023-01-08T17:06:25;5.80;99.90
7384;DHT22;3733;47.994;8.820;2023-01-08T17:08:51;5.80;99.90
7384;DHT22;3733;47.994;8.820;2023-01-08T17:11:19;5.70;99.90
7384;DHT22;3733;47.994;8.820;2023-01-08T17:13:45;5.70;99.90
7384;DHT22;3733;47.994;8.820;2023-01-08T17:16:13;5.80;99.90
7384;DHT22;3733;47.994;8.820;2023-01-08T17:18:39;5.70;99.90
7384;DHT22;3733;47.994;8.820;2023-01-08T17:21:06;5.70;99.90
7384;DHT22;3733;47.994;8.820;2023-01-08T17:23:32;5.70;99.90
7384;DHT22;3733;47.994;8.820;2023-01-08T17:26:00;5.70;99.90
7384;DHT22;3733;47.994;8.820;2023-01-08T17:28:29;5.70;99.90
7384;DHT22;3733;47.994;8.820;2023-01-08T17:31:08;5.70;99.90
7384;DHT22;3733;47.994;8.820;2023-01-08T17:33:35;5.70;99.90
7384;DHT22;3733;47.994;8.820;2023-01-08T17:36:11;5.70;99.90
7384;DHT22;3733;47.994;8.820;2023-01-08T17:38:37;5.70;99.90